createdAt,value
2023-04-07T00:00:04.068Z,5.62
2023-04-07T00:01:04.073Z,5.44
2023-04-07T00:02:04.208Z,5.44
2023-04-07T00:03:04.249Z,5.56
2023-04-07T00:04:05.843Z,5.62
2023-04-07T00:05:05.864Z,5.50
2023-04-07T00:06:04.234Z,5.44
2023-04-07T00:07:05.796Z,5.31
2023-04-07T00:08:05.995Z,5.38
2023-04-07T00:09:06.005Z,5.56
2023-04-07T00:10:06.000Z,5.62
2023-04-07T00:11:03.587Z,5.69
2023-04-07T00:12:03.600Z,5.56
2023-04-07T00:13:03.668Z,5.62
2023-04-07T00:14:03.661Z,5.69
2023-04-07T00:15:03.769Z,5.56
2023-04-07T00:16:03.808Z,5.50
2023-04-07T00:17:03.700Z,5.62
2023-04-07T00:18:03.881Z,5.50
2023-04-07T00:19:03.856Z,5.56
2023-04-07T00:20:03.907Z,5.56
2023-04-07T00:21:03.915Z,5.56
2023-04-07T00:22:03.913Z,5.50
2023-04-07T00:23:03.919Z,5.44
2023-04-07T00:24:04.038Z,5.44
2023-04-07T00:25:04.174Z,5.44
2023-04-07T00:26:04.076Z,5.50
2023-04-07T00:27:05.818Z,5.38
2023-04-07T00:28:04.225Z,5.38
2023-04-07T00:29:05.784Z,5.25
2023-04-07T00:30:05.863Z,5.12
2023-04-07T00:31:03.585Z,4.94
2023-04-07T00:32:03.521Z,5.00
2023-04-07T00:33:03.570Z,4.94
2023-04-07T00:34:03.504Z,4.88
2023-04-07T00:35:03.759Z,4.81
2023-04-07T00:36:03.735Z,4.75
2023-04-07T00:37:03.681Z,4.69
2023-04-07T00:38:03.772Z,4.69
2023-04-07T00:39:03.756Z,4.62
2023-04-07T00:40:03.912Z,4.62
2023-04-07T00:41:03.921Z,4.56
2023-04-07T00:42:04.106Z,4.56
2023-04-07T00:43:04.064Z,4.56
2023-04-07T00:44:04.149Z,4.50
2023-04-07T00:45:04.161Z,4.56
2023-04-07T00:46:04.261Z,4.50
2023-04-07T00:47:04.163Z,4.56
2023-04-07T00:48:05.924Z,4.44
2023-04-07T00:49:05.800Z,4.44
2023-04-07T00:50:06.020Z,4.50
2023-04-07T00:51:05.884Z,4.50
2023-04-07T00:52:03.510Z,4.56
2023-04-07T00:53:03.610Z,4.44
2023-04-07T00:54:03.606Z,4.31
2023-04-07T00:55:03.688Z,4.31
2023-04-07T00:56:03.767Z,4.44
2023-04-07T00:57:03.674Z,4.50
2023-04-07T00:58:03.692Z,4.56
2023-04-07T00:59:03.666Z,4.56
2023-04-07T01:00:03.676Z,4.62
2023-04-07T01:01:03.750Z,4.56
2023-04-07T01:02:03.930Z,4.44
2023-04-07T01:03:04.096Z,4.44
2023-04-07T01:04:03.974Z,4.50
2023-04-07T01:05:04.053Z,4.56
2023-04-07T01:06:03.995Z,4.62
2023-04-07T01:07:03.996Z,4.62
2023-04-07T01:08:04.151Z,4.62
2023-04-07T01:09:04.101Z,4.69
2023-04-07T01:10:04.239Z,4.75
2023-04-07T01:11:05.798Z,4.69
2023-04-07T01:12:05.809Z,4.69
2023-04-07T01:13:05.877Z,4.62
2023-04-07T01:14:04.301Z,4.62
2023-04-07T01:15:05.885Z,4.62
2023-04-07T01:16:03.547Z,4.44
2023-04-07T01:17:03.587Z,4.44
2023-04-07T01:18:03.635Z,4.38
2023-04-07T01:19:03.658Z,4.31
2023-04-07T01:20:03.676Z,4.38
2023-04-07T01:21:03.751Z,4.31
2023-04-07T01:22:03.656Z,4.31
2023-04-07T01:23:03.789Z,4.38
2023-04-07T01:24:03.753Z,4.44
2023-04-07T01:25:03.838Z,4.31
2023-04-07T01:26:03.911Z,4.31
2023-04-07T01:27:03.829Z,4.31
2023-04-07T01:28:03.906Z,4.38
2023-04-07T01:29:03.989Z,4.31
2023-04-07T01:30:06.052Z,4.38
2023-04-07T01:31:04.142Z,4.19
2023-04-07T01:32:05.856Z,4.19
2023-04-07T01:33:05.856Z,4.38
2023-04-07T01:34:04.305Z,4.50
2023-04-07T01:35:05.871Z,4.56
2023-04-07T01:36:03.509Z,4.38
2023-04-07T01:37:03.550Z,4.50
2023-04-07T01:38:03.587Z,4.56
2023-04-07T01:39:03.745Z,4.44
2023-04-07T01:40:03.739Z,4.50
2023-04-07T01:41:03.752Z,4.44
2023-04-07T01:42:03.824Z,4.50
2023-04-07T01:43:03.825Z,4.50
2023-04-07T01:44:04.001Z,4.44
2023-04-07T01:45:03.753Z,4.19
2023-04-07T01:46:03.752Z,4.19
2023-04-07T01:47:03.797Z,4.19
2023-04-07T01:48:03.929Z,4.12
2023-04-07T01:49:03.834Z,4.19
2023-04-07T01:50:03.859Z,4.31
2023-04-07T01:51:03.906Z,4.31
2023-04-07T01:52:03.997Z,4.31
2023-04-07T01:53:04.086Z,4.12
2023-04-07T01:54:04.077Z,4.06
2023-04-07T01:55:04.148Z,4.12
2023-04-07T01:56:04.145Z,4.25
2023-04-07T01:57:04.152Z,4.25
2023-04-07T01:58:04.191Z,4.25
2023-04-07T01:59:04.321Z,4.31
2023-04-07T02:00:04.228Z,4.38
2023-04-07T02:01:04.386Z,4.44
2023-04-07T02:02:04.370Z,4.50
2023-04-07T02:03:05.938Z,4.38
2023-04-07T02:04:05.977Z,4.25
2023-04-07T02:05:03.519Z,4.38
2023-04-07T02:06:03.512Z,4.44
2023-04-07T02:07:03.499Z,4.25
2023-04-07T02:08:03.619Z,4.06
2023-04-07T02:09:03.594Z,4.12
2023-04-07T02:10:03.775Z,4.00
2023-04-07T02:11:03.767Z,3.94
2023-04-07T02:12:03.836Z,3.94
2023-04-07T02:13:03.994Z,3.94
2023-04-07T02:14:03.912Z,4.00
2023-04-07T02:15:04.015Z,4.06
2023-04-07T02:16:04.108Z,4.00
2023-04-07T02:17:03.508Z,4.00
2023-04-07T02:18:03.604Z,4.00
2023-04-07T02:19:05.969Z,4.06
2023-04-07T02:20:03.518Z,4.12
2023-04-07T02:21:03.583Z,4.06
2023-04-07T02:22:03.744Z,4.00
2023-04-07T02:23:03.925Z,3.88
2023-04-07T02:24:03.933Z,3.88
2023-04-07T02:25:04.075Z,3.94
2023-04-07T02:26:04.008Z,4.06
2023-04-07T02:27:04.077Z,3.88
2023-04-07T02:28:03.983Z,3.94
2023-04-07T02:29:04.107Z,3.94
2023-04-07T02:30:04.107Z,3.88
2023-04-07T02:31:04.232Z,3.88
2023-04-07T02:32:04.278Z,3.88
2023-04-07T02:33:04.179Z,3.75
2023-04-07T02:34:04.303Z,3.75
2023-04-07T02:35:05.956Z,3.69
2023-04-07T02:36:03.595Z,3.56
2023-04-07T02:37:03.521Z,3.62
2023-04-07T02:38:03.682Z,3.62
2023-04-07T02:39:03.675Z,3.50
2023-04-07T02:40:03.582Z,3.25
2023-04-07T02:41:03.661Z,3.38
2023-04-07T02:42:03.588Z,3.38
2023-04-07T02:43:03.750Z,3.44
2023-04-07T02:44:03.832Z,3.50
2023-04-07T02:45:03.823Z,3.62
2023-04-07T02:46:03.888Z,3.62
2023-04-07T02:47:03.820Z,3.69
2023-04-07T02:48:03.931Z,3.62
2023-04-07T02:49:03.991Z,3.69
2023-04-07T02:50:03.899Z,3.69
2023-04-07T02:51:03.910Z,3.69
2023-04-07T02:52:03.917Z,3.62
2023-04-07T02:53:03.904Z,3.50
2023-04-07T02:54:03.996Z,3.50
2023-04-07T02:55:04.149Z,3.56
2023-04-07T02:56:04.150Z,3.56
2023-04-07T02:57:04.156Z,3.56
2023-04-07T02:58:04.317Z,3.44
2023-04-07T02:59:05.929Z,3.50
2023-04-07T03:00:03.587Z,3.56
2023-04-07T03:01:03.638Z,3.50
2023-04-07T03:02:03.813Z,3.56
2023-04-07T03:03:03.834Z,3.56
2023-04-07T03:04:03.749Z,3.44
2023-04-07T03:05:03.746Z,3.50
2023-04-07T03:06:03.656Z,3.62
2023-04-07T03:07:03.750Z,3.75
2023-04-07T03:08:03.665Z,3.75
2023-04-07T03:09:03.751Z,3.69
2023-04-07T03:10:03.901Z,3.75
2023-04-07T03:11:03.827Z,3.81
2023-04-07T03:12:04.148Z,3.56
2023-04-07T03:13:04.090Z,3.62
2023-04-07T03:14:04.150Z,3.69
2023-04-07T03:15:04.257Z,3.75
2023-04-07T03:16:04.316Z,3.69
2023-04-07T03:17:04.384Z,3.56
2023-04-07T03:18:04.445Z,3.56
2023-04-07T03:19:05.948Z,3.69
2023-04-07T03:20:03.592Z,3.75
2023-04-07T03:21:03.600Z,3.81
2023-04-07T03:22:03.668Z,3.81
2023-04-07T03:23:03.656Z,3.88
2023-04-07T03:24:03.665Z,3.88
2023-04-07T03:25:03.659Z,3.94
2023-04-07T03:26:03.669Z,3.81
2023-04-07T03:27:03.737Z,3.62
2023-04-07T03:28:03.754Z,3.56
2023-04-07T03:29:03.738Z,3.38
2023-04-07T03:30:03.841Z,3.19
2023-04-07T03:31:03.895Z,3.19
2023-04-07T03:32:03.911Z,3.31
2023-04-07T03:33:04.051Z,3.25
2023-04-07T03:34:04.076Z,3.19
2023-04-07T03:35:03.996Z,3.25
2023-04-07T03:36:04.123Z,2.94
2023-04-07T03:37:04.062Z,3.06
2023-04-07T03:38:04.167Z,3.19
2023-04-07T03:39:04.237Z,3.31
2023-04-07T03:40:04.224Z,3.31
2023-04-07T03:41:04.224Z,3.31
2023-04-07T03:42:04.405Z,3.25
2023-04-07T03:43:04.314Z,3.25
2023-04-07T03:44:03.506Z,3.31
2023-04-07T03:45:03.502Z,3.31
2023-04-07T03:46:03.612Z,3.25
2023-04-07T03:47:03.587Z,3.38
2023-04-07T03:48:03.617Z,3.50
2023-04-07T03:49:03.668Z,3.44
2023-04-07T03:50:03.743Z,3.38
2023-04-07T03:51:03.659Z,3.38
2023-04-07T03:52:03.745Z,3.38
2023-04-07T03:53:03.758Z,3.56
2023-04-07T03:54:03.742Z,3.44
2023-04-07T03:55:03.824Z,3.31
2023-04-07T03:56:03.899Z,3.25
2023-04-07T03:57:04.008Z,3.31
2023-04-07T03:58:04.010Z,3.31
2023-04-07T03:59:03.995Z,3.31
2023-04-07T04:00:04.111Z,3.31
2023-04-07T04:01:04.156Z,3.31
2023-04-07T04:02:04.272Z,3.31
2023-04-07T04:03:04.453Z,3.25
2023-04-07T04:04:04.468Z,3.25
2023-04-07T04:05:04.227Z,3.12
2023-04-07T04:06:04.326Z,3.12
2023-04-07T04:07:04.398Z,3.06
2023-04-07T04:08:04.483Z,3.00
2023-04-07T04:09:04.481Z,3.00
2023-04-07T04:10:03.506Z,3.00
2023-04-07T04:11:03.588Z,3.00
2023-04-07T04:12:03.498Z,3.00
2023-04-07T04:13:03.685Z,3.00
2023-04-07T04:14:03.594Z,3.06
2023-04-07T04:15:03.581Z,3.25
2023-04-07T04:16:03.742Z,3.38
2023-04-07T04:17:05.297Z,3.38
2023-04-07T04:18:03.818Z,3.44
2023-04-07T04:19:03.746Z,3.38
2023-04-07T04:20:03.743Z,3.25
2023-04-07T04:21:03.845Z,3.19
2023-04-07T04:22:03.750Z,3.25
2023-04-07T04:23:03.863Z,3.19
2023-04-07T04:24:03.825Z,3.12
2023-04-07T04:25:04.024Z,3.12
2023-04-07T04:26:04.144Z,3.12
2023-04-07T04:27:04.154Z,3.06
2023-04-07T04:28:04.224Z,3.00
2023-04-07T04:29:04.338Z,3.12
2023-04-07T04:30:04.478Z,3.25
2023-04-07T04:31:03.699Z,2.94
2023-04-07T04:32:03.746Z,2.69
2023-04-07T04:33:03.864Z,2.44
2023-04-07T04:34:03.913Z,2.25
2023-04-07T04:35:03.942Z,2.38
2023-04-07T04:36:04.098Z,2.25
2023-04-07T04:37:04.173Z,2.06
2023-04-07T04:38:04.226Z,1.88
2023-04-07T04:39:04.325Z,1.75
2023-04-07T04:40:04.382Z,1.62
2023-04-07T04:41:03.518Z,1.50
2023-04-07T04:42:03.593Z,1.38
2023-04-07T04:43:03.743Z,1.31
2023-04-07T04:44:03.831Z,1.25
2023-04-07T04:45:03.867Z,1.12
2023-04-07T04:46:03.860Z,1.19
2023-04-07T04:47:06.264Z,1.12
2023-04-07T04:48:03.969Z,1.06
2023-04-07T04:49:04.392Z,1.00
2023-04-07T04:50:04.470Z,1.00
2023-04-07T04:51:03.589Z,0.94
2023-04-07T04:52:03.602Z,0.94
2023-04-07T04:53:03.595Z,0.88
2023-04-07T04:54:03.599Z,0.88
2023-04-07T04:55:03.688Z,0.81
2023-04-07T04:56:03.598Z,0.88
2023-04-07T04:57:03.788Z,1.38
2023-04-07T04:58:03.681Z,1.69
2023-04-07T04:59:03.662Z,1.56
2023-04-07T05:00:03.665Z,1.44
2023-04-07T05:01:03.802Z,1.38
2023-04-07T05:02:03.868Z,1.25
2023-04-07T05:03:04.008Z,1.12
2023-04-07T05:04:04.208Z,1.19
2023-04-07T05:05:03.956Z,1.31
2023-04-07T05:06:03.998Z,1.81
2023-04-07T05:07:03.915Z,1.81
2023-04-07T05:08:03.842Z,2.25
2023-04-07T05:09:03.916Z,2.25
2023-04-07T05:10:04.007Z,2.25
2023-04-07T05:11:04.065Z,2.25
2023-04-07T05:12:04.144Z,2.31
2023-04-07T05:13:04.154Z,2.38
2023-04-07T05:14:04.145Z,2.38
2023-04-07T05:15:04.235Z,2.38
2023-04-07T05:16:04.263Z,2.56
2023-04-07T05:17:04.312Z,2.69
2023-04-07T05:18:04.445Z,2.75
2023-04-07T05:19:04.397Z,2.88
2023-04-07T05:20:04.487Z,3.12
2023-04-07T05:21:04.385Z,3.38
2023-04-07T05:22:03.615Z,3.75
2023-04-07T05:23:03.679Z,4.25
2023-04-07T05:24:04.549Z,4.38
2023-04-07T05:25:03.621Z,4.50
2023-04-07T05:26:03.599Z,4.75
2023-04-07T05:27:03.587Z,4.81
2023-04-07T05:28:03.590Z,4.75
2023-04-07T05:29:03.751Z,4.50
2023-04-07T05:30:03.691Z,4.19
2023-04-07T05:31:05.703Z,3.94
2023-04-07T05:32:04.481Z,3.69
2023-04-07T05:33:04.539Z,3.69
2023-04-07T05:34:04.391Z,3.50
2023-04-07T05:35:03.587Z,3.38
2023-04-07T05:36:04.073Z,3.31
2023-04-07T05:37:04.079Z,3.25
2023-04-07T05:38:04.240Z,3.25
2023-04-07T05:39:04.414Z,3.25
2023-04-07T05:40:04.328Z,3.38
2023-04-07T05:41:04.311Z,3.50
2023-04-07T05:42:04.405Z,3.62
2023-04-07T05:43:04.307Z,4.12
2023-04-07T05:44:04.299Z,5.25
2023-04-07T05:45:03.744Z,6.25
2023-04-07T05:46:03.866Z,7.12
2023-04-07T05:47:03.828Z,7.75
2023-04-07T05:48:03.868Z,7.94
2023-04-07T05:49:13.245Z,7.62
2023-04-07T05:50:03.827Z,7.38
2023-04-07T05:51:03.840Z,7.19
2023-04-07T05:52:03.833Z,7.19
2023-04-07T05:53:03.916Z,7.19
2023-04-07T05:54:04.026Z,7.31
2023-04-07T05:55:04.146Z,7.38
2023-04-07T05:56:04.305Z,7.56
2023-04-07T05:57:04.385Z,7.88
2023-04-07T05:58:04.480Z,7.94
2023-04-07T05:59:04.463Z,7.81
2023-04-07T06:00:03.656Z,7.69
2023-04-07T06:01:03.595Z,7.56
2023-04-07T06:02:03.577Z,7.88
2023-04-07T06:03:03.736Z,8.25
2023-04-07T06:04:03.672Z,8.56
2023-04-07T06:05:03.630Z,8.81
2023-04-07T06:06:03.633Z,9.19
2023-04-07T06:07:03.600Z,9.56
2023-04-07T06:08:03.504Z,9.88
2023-04-07T06:09:03.617Z,10.31
2023-04-07T06:10:03.766Z,10.75
2023-04-07T06:11:03.617Z,11.00
2023-04-07T06:12:03.666Z,11.06
2023-04-07T06:13:03.913Z,11.12
2023-04-07T06:14:03.831Z,11.12
2023-04-07T06:15:03.832Z,11.12
2023-04-07T06:16:03.855Z,10.94
2023-04-07T06:17:03.856Z,10.94
2023-04-07T06:18:03.929Z,10.94
2023-04-07T06:19:03.989Z,10.81
2023-04-07T06:20:04.080Z,10.50
2023-04-07T06:21:04.173Z,10.25
2023-04-07T06:22:04.245Z,10.12
2023-04-07T06:23:04.161Z,9.94
2023-04-07T06:24:04.250Z,9.88
2023-04-07T06:25:04.242Z,9.94
2023-04-07T06:26:04.255Z,9.94
2023-04-07T06:27:04.321Z,9.94
2023-04-07T06:28:04.359Z,10.00
2023-04-07T06:29:04.307Z,10.06
2023-04-07T06:30:04.492Z,10.19
2023-04-07T06:31:04.567Z,10.25
2023-04-07T06:32:04.494Z,10.38
2023-04-07T06:33:03.559Z,10.50
2023-04-07T06:34:04.472Z,10.69
2023-04-07T06:35:04.473Z,10.81
2023-04-07T06:36:04.398Z,10.88
2023-04-07T06:37:03.628Z,11.00
2023-04-07T06:38:03.592Z,11.00
2023-04-07T06:39:03.609Z,11.19
2023-04-07T06:40:03.604Z,11.31
2023-04-07T06:41:03.585Z,11.44
2023-04-07T06:42:03.680Z,11.50
2023-04-07T06:43:03.753Z,11.56
2023-04-07T06:44:03.928Z,11.62
2023-04-07T06:45:03.922Z,11.62
2023-04-07T06:46:03.953Z,11.62
2023-04-07T06:47:03.994Z,11.62
2023-04-07T06:48:04.139Z,11.81
2023-04-07T06:49:04.082Z,11.88
2023-04-07T06:50:04.077Z,11.94
2023-04-07T06:51:04.116Z,12.00
2023-04-07T06:52:04.165Z,12.12
2023-04-07T06:53:04.230Z,12.31
2023-04-07T06:54:04.241Z,12.38
2023-04-07T06:55:04.311Z,12.50
2023-04-07T06:56:04.476Z,12.56
2023-04-07T06:57:03.598Z,12.75
2023-04-07T06:58:03.611Z,12.81
2023-04-07T06:59:03.682Z,12.88
2023-04-07T07:00:03.696Z,12.94
2023-04-07T07:01:03.831Z,13.00
2023-04-07T07:02:03.901Z,13.12
2023-04-07T07:03:03.897Z,13.19
2023-04-07T07:04:03.966Z,13.31
2023-04-07T07:05:03.790Z,13.38
2023-04-07T07:06:03.842Z,13.44
2023-04-07T07:07:03.935Z,13.50
2023-04-07T07:08:03.754Z,13.50
2023-04-07T07:09:04.026Z,13.62
2023-04-07T07:10:03.912Z,13.69
2023-04-07T07:11:04.002Z,13.69
2023-04-07T07:12:04.360Z,13.69
2023-04-07T07:13:04.094Z,13.69
2023-04-07T07:14:04.075Z,13.75
2023-04-07T07:15:04.159Z,13.88
2023-04-07T07:16:04.130Z,13.94
2023-04-07T07:17:04.257Z,14.00
2023-04-07T07:18:04.383Z,14.12
2023-04-07T07:19:04.242Z,14.19
2023-04-07T07:20:04.234Z,14.25
2023-04-07T07:21:04.402Z,14.38
2023-04-07T07:22:04.392Z,14.31
2023-04-07T07:23:04.396Z,14.38
2023-04-07T07:24:04.404Z,14.44
2023-04-07T07:25:04.429Z,14.50
2023-04-07T07:26:04.664Z,14.50
2023-04-07T07:27:04.400Z,14.56
2023-04-07T07:28:04.406Z,14.62
2023-04-07T07:29:04.450Z,14.75
2023-04-07T07:30:04.435Z,14.81
2023-04-07T07:31:04.517Z,14.88
2023-04-07T07:32:03.669Z,14.81
2023-04-07T07:33:03.749Z,14.88
2023-04-07T07:34:03.670Z,15.00
2023-04-07T07:35:03.845Z,15.00
2023-04-07T07:36:03.839Z,15.06
2023-04-07T07:37:03.992Z,15.06
2023-04-07T07:38:04.032Z,15.00
2023-04-07T07:39:04.148Z,15.00
2023-04-07T07:40:04.272Z,15.00
2023-04-07T07:41:04.156Z,15.06
2023-04-07T07:42:04.253Z,15.19
2023-04-07T07:43:04.233Z,15.25
2023-04-07T07:44:04.227Z,15.31
2023-04-07T07:45:04.225Z,15.38
2023-04-07T07:46:04.269Z,15.38
2023-04-07T07:47:03.824Z,15.38
2023-04-07T07:48:03.971Z,15.44
2023-04-07T07:49:04.079Z,15.62
2023-04-07T07:50:04.077Z,15.81
2023-04-07T07:51:04.079Z,16.00
2023-04-07T07:52:04.163Z,16.06
2023-04-07T07:53:04.164Z,16.19
2023-04-07T07:54:04.255Z,16.19
2023-04-07T07:55:04.161Z,16.12
2023-04-07T07:56:04.153Z,16.12
2023-04-07T07:57:04.160Z,16.12
2023-04-07T07:58:04.235Z,16.12
2023-04-07T07:59:04.234Z,16.19
2023-04-07T08:00:04.340Z,16.12
2023-04-07T08:01:04.402Z,16.00
2023-04-07T08:02:03.559Z,16.00
2023-04-07T08:03:03.694Z,15.94
2023-04-07T08:04:04.637Z,15.88
2023-04-07T08:05:03.525Z,15.81
2023-04-07T08:06:03.597Z,15.75
2023-04-07T08:07:03.702Z,15.75
2023-04-07T08:08:03.715Z,15.75
2023-04-07T08:09:03.683Z,15.62
2023-04-07T08:10:03.598Z,15.62
2023-04-07T08:11:03.609Z,15.56
2023-04-07T08:12:03.676Z,15.50
2023-04-07T08:13:03.746Z,15.56
2023-04-07T08:14:03.909Z,15.38
2023-04-07T08:15:04.076Z,15.38
2023-04-07T08:16:04.045Z,15.25
2023-04-07T08:17:04.070Z,15.19
2023-04-07T08:18:04.178Z,15.12
2023-04-07T08:19:04.349Z,15.19
2023-04-07T08:20:06.461Z,15.19
2023-04-07T08:21:04.413Z,15.12
2023-04-07T08:22:04.319Z,15.12
2023-04-07T08:23:04.482Z,15.06
2023-04-07T08:24:04.480Z,15.06
2023-04-07T08:25:03.613Z,15.19
2023-04-07T08:26:03.682Z,15.25
2023-04-07T08:27:03.676Z,15.31
2023-04-07T08:28:03.745Z,15.25
2023-04-07T08:29:03.746Z,15.12
2023-04-07T08:30:03.998Z,15.00
2023-04-07T08:31:03.979Z,14.94
2023-04-07T08:32:03.995Z,15.06
2023-04-07T08:33:03.930Z,15.19
2023-04-07T08:34:04.469Z,15.25
2023-04-07T08:35:04.081Z,15.19
2023-04-07T08:36:04.131Z,15.12
2023-04-07T08:37:04.006Z,15.06
2023-04-07T08:38:04.074Z,15.00
2023-04-07T08:39:04.395Z,14.94
2023-04-07T08:40:04.484Z,15.00
2023-04-07T08:41:04.541Z,15.00
2023-04-07T08:42:04.544Z,14.94
2023-04-07T08:43:03.669Z,14.94
2023-04-07T08:44:03.911Z,14.88
2023-04-07T08:45:03.922Z,14.94
2023-04-07T08:46:03.875Z,14.94
2023-04-07T08:47:03.860Z,15.06
2023-04-07T08:48:03.862Z,15.12
2023-04-07T08:49:04.153Z,15.12
2023-04-07T08:50:04.150Z,15.12
2023-04-07T08:51:04.323Z,15.12
2023-04-07T08:52:05.381Z,15.19
2023-04-07T08:53:05.807Z,15.12
2023-04-07T08:54:03.841Z,15.06
2023-04-07T08:55:03.934Z,15.00
2023-04-07T08:56:03.821Z,15.00
2023-04-07T08:57:03.920Z,15.00
2023-04-07T08:58:03.947Z,15.00
2023-04-07T08:59:04.148Z,14.88
2023-04-07T09:00:04.073Z,14.88
2023-04-07T09:01:04.138Z,14.88
2023-04-07T09:02:04.138Z,14.75
2023-04-07T09:03:04.162Z,14.81
2023-04-07T09:04:04.207Z,14.81
2023-04-07T09:05:04.388Z,14.69
2023-04-07T09:06:04.315Z,14.56
2023-04-07T09:07:04.398Z,14.56
2023-04-07T09:08:04.477Z,14.62
2023-04-07T09:09:04.385Z,14.69
2023-04-07T09:10:03.619Z,14.62
2023-04-07T09:11:03.665Z,14.69
2023-04-07T09:12:03.586Z,14.62
2023-04-07T09:13:03.664Z,14.56
2023-04-07T09:14:04.302Z,14.62
2023-04-07T09:15:04.395Z,14.56
2023-04-07T09:16:04.481Z,14.44
2023-04-07T09:17:03.603Z,14.44
2023-04-07T09:18:03.690Z,14.31
2023-04-07T09:19:03.682Z,14.25
2023-04-07T09:20:03.915Z,14.25
2023-04-07T09:21:03.620Z,14.19
2023-04-07T09:22:03.529Z,14.19
2023-04-07T09:23:03.596Z,14.19
2023-04-07T09:24:03.666Z,14.19
2023-04-07T09:25:03.675Z,14.00
2023-04-07T09:26:03.812Z,13.88
2023-04-07T09:27:03.907Z,13.88
2023-04-07T09:28:03.820Z,13.94
2023-04-07T09:29:03.894Z,13.94
2023-04-07T09:30:03.824Z,13.88
2023-04-07T09:31:03.901Z,13.88
2023-04-07T09:32:04.100Z,13.81
2023-04-07T09:33:04.045Z,13.88
2023-04-07T09:34:04.001Z,13.88
2023-04-07T09:35:04.062Z,14.00
2023-04-07T09:36:04.150Z,14.19
2023-04-07T09:37:04.086Z,14.19
2023-04-07T09:38:04.150Z,14.19
2023-04-07T09:39:04.129Z,14.06
2023-04-07T09:40:04.214Z,14.00
2023-04-07T09:41:04.334Z,13.94
2023-04-07T09:42:04.225Z,13.88
2023-04-07T09:43:04.211Z,13.88
2023-04-07T09:44:04.221Z,13.88
2023-04-07T09:45:04.415Z,13.81
2023-04-07T09:46:04.329Z,13.81
2023-04-07T09:47:04.550Z,14.06
2023-04-07T09:48:03.597Z,14.19
2023-04-07T09:49:03.505Z,14.19
2023-04-07T09:50:03.663Z,14.19
2023-04-07T09:51:03.670Z,14.12
2023-04-07T09:52:03.582Z,14.06
2023-04-07T09:53:03.740Z,13.94
2023-04-07T09:54:03.842Z,13.88
2023-04-07T09:55:03.923Z,13.88
2023-04-07T09:56:03.895Z,13.81
2023-04-07T09:57:03.920Z,13.81
2023-04-07T09:58:03.834Z,13.81
2023-04-07T09:59:03.981Z,13.69
2023-04-07T10:00:04.066Z,13.69
2023-04-07T10:01:04.092Z,13.94
2023-04-07T10:02:04.337Z,14.06
2023-04-07T10:03:04.548Z,14.06
2023-04-07T10:04:04.350Z,14.00
2023-04-07T10:05:03.518Z,13.88
2023-04-07T10:06:03.761Z,13.81
2023-04-07T10:07:03.848Z,13.81
2023-04-07T10:08:03.748Z,13.75
2023-04-07T10:09:03.922Z,13.75
2023-04-07T10:10:03.841Z,13.81
2023-04-07T10:11:03.831Z,13.81
2023-04-07T10:12:04.003Z,14.00
2023-04-07T10:13:04.155Z,13.94
2023-04-07T10:14:04.154Z,14.00
2023-04-07T10:15:04.308Z,14.00
2023-04-07T10:16:04.392Z,13.94
2023-04-07T10:17:03.987Z,13.81
2023-04-07T10:18:03.940Z,13.88
2023-04-07T10:19:03.831Z,13.81
2023-04-07T10:20:03.911Z,13.88
2023-04-07T10:21:03.912Z,13.88
2023-04-07T10:22:03.950Z,13.94
2023-04-07T10:23:03.907Z,14.00
2023-04-07T10:24:03.999Z,14.00
2023-04-07T10:25:03.998Z,14.00
2023-04-07T10:26:04.081Z,14.00
2023-04-07T10:27:04.246Z,14.12
2023-04-07T10:28:04.156Z,14.25
2023-04-07T10:29:04.311Z,14.19
2023-04-07T10:30:04.325Z,14.19
2023-04-07T10:31:04.445Z,14.25
2023-04-07T10:32:03.521Z,14.19
2023-04-07T10:33:03.659Z,14.12
2023-04-07T10:34:03.682Z,14.12
2023-04-07T10:35:03.776Z,14.12
2023-04-07T10:36:03.728Z,14.19
2023-04-07T10:37:03.674Z,14.31
2023-04-07T10:38:03.627Z,14.50
2023-04-07T10:39:03.695Z,14.56
2023-04-07T10:40:03.755Z,14.62
2023-04-07T10:41:03.765Z,14.62
2023-04-07T10:42:03.944Z,14.62
2023-04-07T10:43:03.988Z,14.62
2023-04-07T10:44:04.175Z,14.50
2023-04-07T10:45:04.230Z,14.50
2023-04-07T10:46:04.186Z,14.62
2023-04-07T10:47:04.225Z,14.69
2023-04-07T10:48:04.363Z,14.75
2023-04-07T10:49:04.313Z,14.62
2023-04-07T10:50:04.411Z,14.56
2023-04-07T10:51:04.406Z,14.50
2023-04-07T10:52:04.395Z,14.38
2023-04-07T10:53:04.559Z,14.38
2023-04-07T10:54:03.518Z,14.38
2023-04-07T10:55:03.593Z,14.25
2023-04-07T10:56:03.587Z,14.19
2023-04-07T10:57:03.599Z,14.19
2023-04-07T10:58:03.774Z,14.19
2023-04-07T10:59:03.660Z,14.25
2023-04-07T11:00:03.841Z,14.25
2023-04-07T11:01:03.916Z,14.25
2023-04-07T11:02:04.131Z,14.25
2023-04-07T11:03:04.180Z,14.19
2023-04-07T11:04:04.066Z,14.12
2023-04-07T11:05:04.102Z,13.94
2023-04-07T11:06:04.310Z,13.88
2023-04-07T11:07:04.316Z,13.81
2023-04-07T11:08:04.388Z,13.88
2023-04-07T11:09:03.427Z,13.94
2023-04-07T11:10:03.521Z,13.94
2023-04-07T11:11:03.622Z,13.94
2023-04-07T11:12:03.668Z,13.88
2023-04-07T11:13:03.517Z,13.81
2023-04-07T11:14:03.599Z,13.75
2023-04-07T11:15:03.598Z,13.69
2023-04-07T11:16:03.701Z,13.75
2023-04-07T11:17:03.844Z,14.00
2023-04-07T11:18:03.906Z,14.06
2023-04-07T11:19:04.000Z,14.06
2023-04-07T11:20:04.076Z,14.06
2023-04-07T11:21:04.007Z,14.06
2023-04-07T11:22:04.228Z,14.06
2023-04-07T11:23:04.316Z,14.12
2023-04-07T11:24:04.315Z,14.19
2023-04-07T11:25:04.316Z,14.19
2023-04-07T11:26:04.303Z,14.12
2023-04-07T11:27:04.236Z,14.06
2023-04-07T11:28:04.244Z,14.06
2023-04-07T11:29:04.401Z,14.06
2023-04-07T11:30:03.507Z,14.06
2023-04-07T11:31:04.287Z,14.06
2023-04-07T11:32:04.332Z,14.06
2023-04-07T11:33:03.567Z,14.25
2023-04-07T11:34:03.694Z,14.44
2023-04-07T11:35:03.675Z,14.62
2023-04-07T11:36:03.880Z,14.56
2023-04-07T11:37:03.992Z,14.50
2023-04-07T11:38:03.991Z,14.50
2023-04-07T11:39:04.168Z,14.56
2023-04-07T11:40:04.181Z,14.75
2023-04-07T11:41:04.235Z,14.88
2023-04-07T11:42:04.230Z,15.00
2023-04-07T11:43:04.308Z,15.00
2023-04-07T11:44:04.474Z,15.00
2023-04-07T11:45:03.516Z,15.06
2023-04-07T11:46:03.528Z,14.88
2023-04-07T11:47:03.799Z,14.69
2023-04-07T11:48:03.557Z,14.44
2023-04-07T11:49:03.531Z,14.38
2023-04-07T11:50:03.522Z,14.25
2023-04-07T11:51:03.516Z,14.19
2023-04-07T11:52:03.734Z,14.06
2023-04-07T11:53:03.845Z,14.06
2023-04-07T11:54:03.745Z,14.06
2023-04-07T11:55:03.833Z,14.06
2023-04-07T11:56:03.928Z,14.06
2023-04-07T11:57:04.024Z,14.00
2023-04-07T11:58:03.919Z,14.00
2023-04-07T11:59:04.075Z,14.00
2023-04-07T12:00:03.998Z,13.81
2023-04-07T12:01:03.915Z,13.81
2023-04-07T12:02:04.059Z,13.81
2023-04-07T12:03:04.237Z,13.81
2023-04-07T12:04:04.381Z,13.81
2023-04-07T12:05:04.178Z,13.94
2023-04-07T12:06:04.169Z,13.94
2023-04-07T12:07:04.164Z,13.94
2023-04-07T12:08:04.319Z,13.94
2023-04-07T12:09:04.401Z,13.88
2023-04-07T12:10:04.395Z,13.81
2023-04-07T12:11:04.478Z,13.75
2023-04-07T12:12:04.473Z,13.69
2023-04-07T12:13:03.516Z,13.62
2023-04-07T12:14:03.436Z,13.62
2023-04-07T12:15:03.676Z,13.75
2023-04-07T12:16:03.704Z,13.75
2023-04-07T12:17:03.987Z,13.88
2023-04-07T12:18:03.807Z,14.00
2023-04-07T12:19:03.677Z,14.31
2023-04-07T12:20:03.673Z,14.56
2023-04-07T12:21:03.759Z,14.62
2023-04-07T12:22:03.839Z,14.75
2023-04-07T12:23:03.988Z,14.88
2023-04-07T12:24:04.158Z,14.88
2023-04-07T12:25:04.152Z,14.88
2023-04-07T12:26:04.320Z,14.88
2023-04-07T12:27:04.417Z,14.81
2023-04-07T12:28:04.548Z,14.75
2023-04-07T12:29:04.390Z,14.75
2023-04-07T12:30:04.468Z,14.75
2023-04-07T12:31:04.391Z,14.69
2023-04-07T12:32:03.566Z,14.62
2023-04-07T12:33:03.550Z,14.81
2023-04-07T12:34:04.146Z,14.88
2023-04-07T12:35:04.145Z,14.94
2023-04-07T12:36:04.187Z,15.06
2023-04-07T12:37:04.158Z,15.12
2023-04-07T12:38:04.143Z,15.25
2023-04-07T12:39:04.233Z,15.12
2023-04-07T12:40:04.309Z,15.00
2023-04-07T12:41:04.260Z,15.00
2023-04-07T12:42:04.143Z,14.94
2023-04-07T12:43:04.269Z,14.94
2023-04-07T12:44:04.321Z,15.00
2023-04-07T12:45:04.348Z,15.00
2023-04-07T12:46:04.350Z,14.94
2023-04-07T12:47:04.404Z,14.88
2023-04-07T12:48:04.406Z,14.81
2023-04-07T12:49:04.395Z,14.81
2023-04-07T12:50:03.616Z,14.81
2023-04-07T12:51:04.561Z,14.75
2023-04-07T12:52:04.477Z,14.69
2023-04-07T12:53:03.532Z,14.56
2023-04-07T12:54:03.607Z,14.50
2023-04-07T12:55:03.634Z,14.44
2023-04-07T12:56:03.677Z,14.38
2023-04-07T12:57:03.665Z,14.38
2023-04-07T12:58:03.914Z,14.38
2023-04-07T12:59:04.160Z,14.38
2023-04-07T13:00:04.075Z,14.31
2023-04-07T13:01:04.086Z,14.25
2023-04-07T13:02:04.158Z,14.19
2023-04-07T13:03:04.109Z,14.25
2023-04-07T13:04:04.315Z,14.25